sensor_id;sensor_type;location;lat;lon;timestamp;pressure;altitude;pressure_sealevel;temperature;humidity
65546;BME280;52177;55.968;37.498;2024-03-23T00:52:42;98686.88;;;3.07;69.63
65546;BME280;52177;55.968;37.498;2024-03-23T00:54:15;98685.06;;;3.08;70.19
65546;BME280;52177;55.968;37.498;2024-03-23T00:54:46;98688.69;;;3.07;70.06
65546;BME280;52177;55.968;37.498;2024-03-23T00:55:16;98685.06;;;3.08;69.74
65546;BME280;52177;55.968;37.498;2024-03-23T00:55:47;98692.16;;;3.07;70.01
65546;BME280;52177;55.968;37.498;2024-03-23T00:56:17;98677.84;;;3.10;69.70
65546;BME280;52177;55.968;37.498;2024-03-23T00:56:47;98675.34;;;3.08;69.83
65546;BME280;52177;55.968;37.498;2024-03-23T00:57:18;98679.00;;;3.07;70.03
65546;BME280;52177;55.968;37.498;2024-03-23T00:57:48;98679.00;;;3.07;70.31
65546;BME280;52177;55.968;37.498;2024-03-23T00:58:19;98676.50;;;3.06;70.18
65546;BME280;52177;55.968;37.498;2024-03-23T00:58:49;98683.56;;;3.05;70.22
65546;BME280;52177;55.968;37.498;2024-03-23T00:59:20;98674.84;;;3.05;70.13
65546;BME280;52177;55.968;37.498;2024-03-23T00:59:52;98673.03;;;3.05;70.22
65546;BME280;52177;55.968;37.498;2024-03-23T01:00:22;98672.06;;;3.06;70.24
65546;BME280;52177;55.968;37.498;2024-03-23T01:00:53;98682.75;;;3.05;70.61
65546;BME280;52177;55.968;37.498;2024-03-23T01:01:23;98685.22;;;3.06;70.64
65546;BME280;52177;55.968;37.498;2024-03-23T01:01:54;98678.31;;;3.05;70.39
65546;BME280;52177;55.968;37.498;2024-03-23T01:02:25;98676.50;;;3.06;70.45
65546;BME280;52177;55.968;37.498;2024-03-23T01:02:55;98672.06;;;3.06;70.20
65546;BME280;52177;55.968;37.498;2024-03-23T01:03:26;98670.28;;;3.07;70.39
65546;BME280;52177;55.968;37.498;2024-03-23T01:03:56;98673.72;;;3.07;70.63
65546;BME280;52177;55.968;37.498;2024-03-23T01:04:26;98671.09;;;3.07;70.79
65546;BME280;52177;55.968;37.498;2024-03-23T01:04:57;98666.78;;;3.06;70.88
65546;BME280;52177;55.968;37.498;2024-03-23T01:05:27;98673.88;;;3.06;70.87
65546;BME280;52177;55.968;37.498;2024-03-23T01:06:01;98676.50;;;3.06;70.96
65546;BME280;52177;55.968;37.498;2024-03-23T01:06:32;98673.72;;;3.07;70.88
65546;BME280;52177;55.968;37.498;2024-03-23T01:07:02;98673.72;;;3.07;70.88
65546;BME280;52177;55.968;37.498;2024-03-23T01:07:33;98669.41;;;3.06;70.93
65546;BME280;52177;55.968;37.498;2024-03-23T01:08:03;98667.63;;;3.07;71.03
65546;BME280;52177;55.968;37.498;2024-03-23T01:08:34;98665.97;;;3.06;71.19
65546;BME280;52177;55.968;37.498;2024-03-23T01:09:04;98665.97;;;3.06;71.07
65546;BME280;52177;55.968;37.498;2024-03-23T01:09:34;98672.06;;;3.06;71.37
65546;BME280;52177;55.968;37.498;2024-03-23T01:10:05;98666.78;;;3.06;71.03
65546;BME280;52177;55.968;37.498;2024-03-23T01:10:36;98667.78;;;3.05;71.49
65546;BME280;52177;55.968;37.498;2024-03-23T01:11:06;98665.81;;;3.07;71.13
65546;BME280;52177;55.968;37.498;2024-03-23T01:11:37;98661.69;;;3.05;71.61
65546;BME280;52177;55.968;37.498;2024-03-23T01:12:07;98663.47;;;3.04;71.30
65546;BME280;52177;55.968;37.498;2024-03-23T01:12:38;98661.16;;;3.01;71.97
65546;BME280;52177;55.968;37.498;2024-03-23T01:13:08;98659.53;;;3.00;71.91
65546;BME280;52177;55.968;37.498;2024-03-23T01:13:38;98656.88;;;3.00;71.68
65546;BME280;52177;55.968;37.498;2024-03-23T01:14:09;98655.91;;;3.01;71.67
65546;BME280;52177;55.968;37.498;2024-03-23T01:14:39;98655.22;;;2.99;71.95
65546;BME280;52177;55.968;37.498;2024-03-23T01:15:10;98661.16;;;3.01;72.07
65546;BME280;52177;55.968;37.498;2024-03-23T01:15:40;98654.25;;;3.00;72.07
65546;BME280;52177;55.968;37.498;2024-03-23T01:16:11;98656.56;;;3.03;71.98
65546;BME280;52177;55.968;37.498;2024-03-23T01:16:41;98652.31;;;3.02;72.09
65546;BME280;52177;55.968;37.498;2024-03-23T01:17:12;98652.81;;;3.06;71.89
65546;BME280;52177;55.968;37.498;2024-03-23T01:17:42;98662.19;;;3.08;71.68
65546;BME280;52177;55.968;37.498;2024-03-23T01:18:13;98650.84;;;3.08;71.96
65546;BME280;52177;55.968;37.498;2024-03-23T01:18:43;98657.75;;;3.09;72.01
65546;BME280;52177;55.968;37.498;2024-03-23T01:19:14;98649.84;;;3.09;72.08
65546;BME280;52177;55.968;37.498;2024-03-23T01:19:44;98653.47;;;3.08;72.22
65546;BME280;52177;55.968;37.498;2024-03-23T01:20:14;98645.56;;;3.08;72.40
65546;BME280;52177;55.968;37.498;2024-03-23T01:20:45;98641.00;;;3.10;72.09
65546;BME280;52177;55.968;37.498;2024-03-23T01:21:16;98639.16;;;3.10;71.96
65546;BME280;52177;55.968;37.498;2024-03-23T01:21:47;98643.63;;;3.10;72.07
65546;BME280;52177;55.968;37.498;2024-03-23T01:22:18;98639.63;;;3.06;72.81
65546;BME280;52177;55.968;37.498;2024-03-23T01:22:49;98643.41;;;3.03;73.13
65546;BME280;52177;55.968;37.498;2024-03-23T01:23:19;98644.22;;;3.04;72.84
65546;BME280;52177;55.968;37.498;2024-03-23T01:23:50;98644.22;;;3.04;72.75
65546;BME280;52177;55.968;37.498;2024-03-23T01:24:20;98642.72;;;3.01;73.01
65546;BME280;52177;55.968;37.498;2024-03-23T01:24:51;98645.91;;;3.05;72.82
65546;BME280;52177;55.968;37.498;2024-03-23T01:25:21;98640.09;;;3.01;73.17
65546;BME280;52177;55.968;37.498;2024-03-23T01:25:54;98640.91;;;3.02;73.45
65546;BME280;52177;55.968;37.498;2024-03-23T01:26:25;98639.28;;;3.01;73.30
65546;BME280;52177;55.968;37.498;2024-03-23T01:26:55;98642.06;;;2.99;73.36
65546;BME280;52177;55.968;37.498;2024-03-23T01:27:26;98644.53;;;3.01;73.05
65546;BME280;52177;55.968;37.498;2024-03-23T01:27:56;98641.09;;;3.00;73.74
65546;BME280;52177;55.968;37.498;2024-03-23T01:28:27;98634.16;;;2.99;73.90
65546;BME280;52177;55.968;37.498;2024-03-23T01:28:57;98638.59;;;2.99;73.73
65546;BME280;52177;55.968;37.498;2024-03-23T01:29:27;98629.88;;;2.98;73.63
65546;BME280;52177;55.968;37.498;2024-03-23T01:29:58;98643.88;;;2.99;73.54
65546;BME280;52177;55.968;37.498;2024-03-23T01:30:28;98634.16;;;2.99;73.35
65546;BME280;52177;55.968;37.498;2024-03-23T01:30:59;98636.97;;;2.98;73.70
65546;BME280;52177;55.968;37.498;2024-03-23T01:31:29;98637.78;;;2.98;73.85
65546;BME280;52177;55.968;37.498;2024-03-23T01:31:59;98633.47;;;2.97;74.28
65546;BME280;52177;55.968;37.498;2024-03-23T01:32:30;98632.66;;;2.96;74.33
65546;BME280;52177;55.968;37.498;2024-03-23T01:33:01;98631.03;;;2.95;74.36
65546;BME280;52177;55.968;37.498;2024-03-23T01:33:32;98625.91;;;2.94;74.50
65546;BME280;52177;55.968;37.498;2024-03-23T01:34:03;98625.09;;;2.93;74.47
65546;BME280;52177;55.968;37.498;2024-03-23T01:34:33;98626.91;;;2.93;74.15
65546;BME280;52177;55.968;37.498;2024-03-23T01:35:04;98621.78;;;2.91;74.67
65546;BME280;52177;55.968;37.498;2024-03-23T01:35:34;98627.03;;;2.91;74.76
65546;BME280;52177;55.968;37.498;2024-03-23T01:36:05;98613.19;;;2.89;75.11
65546;BME280;52177;55.968;37.498;2024-03-23T01:36:35;98622.78;;;2.90;74.91
65546;BME280;52177;55.968;37.498;2024-03-23T01:37:06;98623.41;;;2.92;74.75
65546;BME280;52177;55.968;37.498;2024-03-23T01:37:36;98618.16;;;2.92;74.71
65546;BME280;52177;55.968;37.498;2024-03-23T01:38:07;98627.56;;;2.95;74.46
65546;BME280;52177;55.968;37.498;2024-03-23T01:38:37;98616.38;;;2.93;74.39
65546;BME280;52177;55.968;37.498;2024-03-23T01:39:07;98623.94;;;2.96;74.04
65546;BME280;52177;55.968;37.498;2024-03-23T01:39:39;98614.22;;;2.96;74.22
65546;BME280;52177;55.968;37.498;2024-03-23T01:40:10;98618.69;;;2.96;74.45
65546;BME280;52177;55.968;37.498;2024-03-23T01:40:43;98618.53;;;2.98;74.23
65546;BME280;52177;55.968;37.498;2024-03-23T01:41:13;98620.31;;;2.97;74.47
65546;BME280;52177;55.968;37.498;2024-03-23T01:41:44;98620.03;;;3.00;73.78
65546;BME280;52177;55.968;37.498;2024-03-23T01:42:14;98619.19;;;3.00;74.01
65546;BME280;52177;55.968;37.498;2024-03-23T01:43:04;98621.16;;;2.98;74.60
65546;BME280;52177;55.968;37.498;2024-03-23T01:43:35;98619.50;;;2.96;74.62
65546;BME280;52177;55.968;37.498;2024-03-23T01:44:05;98622.94;;;2.97;74.43
65546;BME280;52177;55.968;37.498;2024-03-23T01:44:38;98615.91;;;2.98;74.28
65546;BME280;52177;55.968;37.498;2024-03-23T01:45:09;98617.69;;;2.97;74.11
65546;BME280;52177;55.968;37.498;2024-03-23T01:45:42;98617.03;;;2.95;74.45
65546;BME280;52177;55.968;37.498;2024-03-23T01:46:13;98614.41;;;2.95;74.69
65546;BME280;52177;55.968;37.498;2024-03-23T01:46:44;98614.56;;;2.93;74.92
65546;BME280;52177;55.968;37.498;2024-03-23T01:47:14;98611.94;;;2.93;74.98
65546;BME280;52177;55.968;37.498;2024-03-23T01:47:45;98616.38;;;2.93;74.93
65546;BME280;52177;55.968;37.498;2024-03-23T01:48:15;98611.09;;;2.93;75.27
65546;BME280;52177;55.968;37.498;2024-03-23T01:48:46;98618.00;;;2.94;74.84
65546;BME280;52177;55.968;37.498;2024-03-23T01:49:16;98613.19;;;2.89;75.40
65546;BME280;52177;55.968;37.498;2024-03-23T01:49:46;98607.94;;;2.89;75.39
65546;BME280;52177;55.968;37.498;2024-03-23T01:50:17;98606.97;;;2.90;74.84
65546;BME280;52177;55.968;37.498;2024-03-23T01:50:47;98614.56;;;2.93;74.66
65546;BME280;52177;55.968;37.498;2024-03-23T01:51:18;98617.03;;;2.95;74.80
65546;BME280;52177;55.968;37.498;2024-03-23T01:51:49;98598.75;;;2.93;74.66
65546;BME280;52177;55.968;37.498;2024-03-23T01:52:19;98610.25;;;2.92;74.68
65546;BME280;52177;55.968;37.498;2024-03-23T01:52:50;98612.25;;;2.90;74.96
65546;BME280;52177;55.968;37.498;2024-03-23T01:53:21;98601.03;;;2.88;75.21
65546;BME280;52177;55.968;37.498;2024-03-23T01:53:54;98602.69;;;2.89;74.95
65546;BME280;52177;55.968;37.498;2024-03-23T01:54:25;98599.06;;;2.90;74.83
65546;BME280;52177;55.968;37.498;2024-03-23T01:54:55;98606.81;;;2.92;74.66
65546;BME280;52177;55.968;37.498;2024-03-23T01:55:26;98600.72;;;2.91;74.84
65546;BME280;52177;55.968;37.498;2024-03-23T01:55:57;98600.72;;;2.91;75.19
65546;BME280;52177;55.968;37.498;2024-03-23T01:56:28;98597.25;;;2.91;75.00
65546;BME280;52177;55.968;37.498;2024-03-23T01:56:59;98597.41;;;2.89;75.61
65546;BME280;52177;55.968;37.498;2024-03-23T01:57:30;98594.78;;;2.89;75.76
65546;BME280;52177;55.968;37.498;2024-03-23T01:58:00;98601.03;;;2.88;75.61
65546;BME280;52177;55.968;37.498;2024-03-23T01:58:31;98592.28;;;2.88;75.52
65546;BME280;52177;55.968;37.498;2024-03-23T01:59:05;98588.03;;;2.87;75.89
65546;BME280;52177;55.968;37.498;2024-03-23T01:59:35;98592.47;;;2.86;75.93
65546;BME280;52177;55.968;37.498;2024-03-23T02:00:06;98598.53;;;2.87;75.60
65546;BME280;52177;55.968;37.498;2024-03-23T02:00:37;98591.47;;;2.87;75.37
65546;BME280;52177;55.968;37.498;2024-03-23T02:01:08;98592.28;;;2.88;75.39
65546;BME280;52177;55.968;37.498;2024-03-23T02:01:38;98594.28;;;2.86;75.81
65546;BME280;52177;55.968;37.498;2024-03-23T02:02:08;98586.38;;;2.86;75.96
65546;BME280;52177;55.968;37.498;2024-03-23T02:02:45;98590.78;;;2.85;75.81
65546;BME280;52177;55.968;37.498;2024-03-23T02:03:28;98581.13;;;2.86;75.86
65546;BME280;52177;55.968;37.498;2024-03-23T02:03:58;98583.91;;;2.84;76.20
65546;BME280;52177;55.968;37.498;2024-03-23T02:04:29;98577.81;;;2.84;76.16
65546;BME280;52177;55.968;37.498;2024-03-23T02:04:59;98582.91;;;2.85;76.17
65546;BME280;52177;55.968;37.498;2024-03-23T02:05:30;98578.63;;;2.84;76.18
65546;BME280;52177;55.968;37.498;2024-03-23T02:06:00;98575.84;;;2.86;76.23
65546;BME280;52177;55.968;37.498;2024-03-23T02:06:31;98581.25;;;2.84;76.45
65546;BME280;52177;55.968;37.498;2024-03-23T02:07:01;98576.00;;;2.84;76.32
65546;BME280;52177;55.968;37.498;2024-03-23T02:07:32;98581.41;;;2.83;76.52
65546;BME280;52177;55.968;37.498;2024-03-23T02:08:02;98573.50;;;2.83;76.74
65546;BME280;52177;55.968;37.498;2024-03-23T02:08:33;98570.06;;;2.82;76.78
65546;BME280;52177;55.968;37.498;2024-03-23T02:09:04;98580.59;;;2.82;76.75
65546;BME280;52177;55.968;37.498;2024-03-23T02:09:35;98576.16;;;2.83;76.67
65546;BME280;52177;55.968;37.498;2024-03-23T02:10:07;98571.69;;;2.83;76.65
65546;BME280;52177;55.968;37.498;2024-03-23T02:10:38;98567.28;;;2.84;76.69
65546;BME280;52177;55.968;37.498;2024-03-23T02:11:08;98576.00;;;2.84;76.74
65546;BME280;52177;55.968;37.498;2024-03-23T02:11:38;98570.59;;;2.86;76.35
65546;BME280;52177;55.968;37.498;2024-03-23T02:12:09;98570.28;;;2.89;76.09
65546;BME280;52177;55.968;37.498;2024-03-23T02:12:40;98567.31;;;2.92;75.76
65546;BME280;52177;55.968;37.498;2024-03-23T02:13:10;98562.59;;;2.95;75.49
65546;BME280;52177;55.968;37.498;2024-03-23T02:13:41;98569.81;;;2.93;75.74
65546;BME280;52177;55.968;37.498;2024-03-23T02:14:11;98561.91;;;2.93;75.53
65546;BME280;52177;55.968;37.498;2024-03-23T02:14:42;98558.59;;;2.91;75.95
65546;BME280;52177;55.968;37.498;2024-03-23T02:15:12;98560.25;;;2.92;75.83
65546;BME280;52177;55.968;37.498;2024-03-23T02:15:42;98560.25;;;2.92;75.83
65546;BME280;52177;55.968;37.498;2024-03-23T02:16:13;98554.97;;;2.92;75.62
65546;BME280;52177;55.968;37.498;2024-03-23T02:16:44;98564.69;;;2.92;75.91
65546;BME280;52177;55.968;37.498;2024-03-23T02:17:14;98557.59;;;2.92;75.88
65546;BME280;52177;55.968;37.498;2024-03-23T02:17:44;98555.16;;;2.91;76.07
65546;BME280;52177;55.968;37.498;2024-03-23T02:18:15;98554.97;;;2.92;75.80
65546;BME280;52177;55.968;37.498;2024-03-23T02:18:45;98558.47;;;2.93;75.84
65546;BME280;52177;55.968;37.498;2024-03-23T02:19:16;98553.19;;;2.93;75.99
65546;BME280;52177;55.968;37.498;2024-03-23T02:19:46;98556.66;;;2.93;75.84
65546;BME280;52177;55.968;37.498;2024-03-23T02:20:17;98550.25;;;2.96;75.80
65546;BME280;52177;55.968;37.498;2024-03-23T02:20:47;98559.13;;;2.95;75.82
65546;BME280;52177;55.968;37.498;2024-03-23T02:21:17;98552.34;;;2.92;76.12
65546;BME280;52177;55.968;37.498;2024-03-23T02:21:48;98549.72;;;2.92;76.00
65546;BME280;52177;55.968;37.498;2024-03-23T02:22:18;98543.63;;;2.92;76.11
65546;BME280;52177;55.968;37.498;2024-03-23T02:22:51;98542.13;;;2.89;76.71
65546;BME280;52177;55.968;37.498;2024-03-23T02:23:22;98542.00;;;2.91;76.41
65546;BME280;52177;55.968;37.498;2024-03-23T02:23:52;98548.22;;;2.90;76.69
65546;BME280;52177;55.968;37.498;2024-03-23T02:24:22;98543.13;;;2.88;76.58
65546;BME280;52177;55.968;37.498;2024-03-23T02:24:56;98546.59;;;2.89;76.88
65546;BME280;52177;55.968;37.498;2024-03-23T02:25:26;98533.28;;;2.90;76.59
65546;BME280;52177;55.968;37.498;2024-03-23T02:25:57;98541.16;;;2.90;76.60
65546;BME280;52177;55.968;37.498;2024-03-23T02:26:27;98537.88;;;2.88;76.75
65546;BME280;52177;55.968;37.498;2024-03-23T02:26:58;98541.47;;;2.87;77.12
65546;BME280;52177;55.968;37.498;2024-03-23T02:27:28;98538.84;;;2.87;77.08
65546;BME280;52177;55.968;37.498;2024-03-23T02:27:59;98534.38;;;2.88;76.88
65546;BME280;52177;55.968;37.498;2024-03-23T02:28:30;98537.88;;;2.88;77.07
65546;BME280;52177;55.968;37.498;2024-03-23T02:29:00;98535.22;;;2.88;76.92
65546;BME280;52177;55.968;37.498;2024-03-23T02:29:30;98536.06;;;2.89;77.21
65546;BME280;52177;55.968;37.498;2024-03-23T02:30:01;98534.91;;;2.91;76.91
65546;BME280;52177;55.968;37.498;2024-03-23T02:30:31;98535.06;;;2.90;77.19
65546;BME280;52177;55.968;37.498;2024-03-23T02:31:02;98532.59;;;2.88;77.24
65546;BME280;52177;55.968;37.498;2024-03-23T02:31:35;98532.59;;;2.88;77.57
65546;BME280;52177;55.968;37.498;2024-03-23T02:32:06;98533.56;;;2.87;77.68
65546;BME280;52177;55.968;37.498;2024-03-23T02:32:39;98528.97;;;2.89;77.70
65546;BME280;52177;55.968;37.498;2024-03-23T02:33:09;98526.66;;;2.86;78.01
65546;BME280;52177;55.968;37.498;2024-03-23T02:33:39;98520.41;;;2.87;77.63
65546;BME280;52177;55.968;37.498;2024-03-23T02:34:10;98514.19;;;2.88;77.57
65546;BME280;52177;55.968;37.498;2024-03-23T02:34:41;98516.50;;;2.91;77.16
65546;BME280;52177;55.968;37.498;2024-03-23T02:35:11;98520.94;;;2.91;77.36
65546;BME280;52177;55.968;37.498;2024-03-23T02:35:43;98520.13;;;2.90;77.49
65546;BME280;52177;55.968;37.498;2024-03-23T02:36:14;98514.69;;;2.92;77.50
65546;BME280;52177;55.968;37.498;2024-03-23T02:36:44;98524.38;;;2.91;77.55
65546;BME280;52177;55.968;37.498;2024-03-23T02:37:14;98526.19;;;2.91;77.87
65546;BME280;52177;55.968;37.498;2024-03-23T02:37:46;98511.22;;;2.91;78.06
65546;BME280;52177;55.968;37.498;2024-03-23T02:38:18;98514.84;;;2.90;77.91
65546;BME280;52177;55.968;37.498;2024-03-23T02:38:49;98508.59;;;2.91;77.84
65546;BME280;52177;55.968;37.498;2024-03-23T02:39:19;98509.94;;;2.95;77.45
65546;BME280;52177;55.968;37.498;2024-03-23T02:39:50;98516.34;;;2.93;77.63
65546;BME280;52177;55.968;37.498;2024-03-23T02:40:20;98513.84;;;2.91;77.62
65546;BME280;52177;55.968;37.498;2024-03-23T02:40:51;98514.84;;;2.90;77.73
65546;BME280;52177;55.968;37.498;2024-03-23T02:41:21;98506.78;;;2.92;77.72
65546;BME280;52177;55.968;37.498;2024-03-23T02:41:53;98507.59;;;2.92;77.73
65546;BME280;52177;55.968;37.498;2024-03-23T02:42:24;98492.78;;;2.91;77.69
65546;BME280;52177;55.968;37.498;2024-03-23T02:42:54;98499.19;;;2.89;78.30
65546;BME280;52177;55.968;37.498;2024-03-23T02:43:25;98499.34;;;2.87;78.29
65546;BME280;52177;55.968;37.498;2024-03-23T02:43:55;98506.28;;;2.88;78.20
65546;BME280;52177;55.968;37.498;2024-03-23T02:44:26;98504.63;;;2.87;78.25
65546;BME280;52177;55.968;37.498;2024-03-23T02:44:58;98498.38;;;2.88;78.14
65546;BME280;52177;55.968;37.498;2024-03-23T02:45:28;98503.66;;;2.88;78.27
65546;BME280;52177;55.968;37.498;2024-03-23T02:45:59;98497.53;;;2.88;78.46
65546;BME280;52177;55.968;37.498;2024-03-23T02:46:31;98506.28;;;2.88;78.50
65546;BME280;52177;55.968;37.498;2024-03-23T02:47:01;98496.44;;;2.90;78.19
65546;BME280;52177;55.968;37.498;2024-03-23T02:47:31;98484.91;;;2.91;78.25
65546;BME280;52177;55.968;37.498;2024-03-23T02:48:02;98491.97;;;2.91;78.23
65546;BME280;52177;55.968;37.498;2024-03-23T02:48:34;98494.28;;;2.94;77.95
65546;BME280;52177;55.968;37.498;2024-03-23T02:49:04;98489.34;;;2.91;78.49
65546;BME280;52177;55.968;37.498;2024-03-23T02:49:35;98493.13;;;2.88;78.90
65546;BME280;52177;55.968;37.498;2024-03-23T02:50:06;98486.88;;;2.89;78.61
65546;BME280;52177;55.968;37.498;2024-03-23T02:50:37;98479.09;;;2.88;78.41
65546;BME280;52177;55.968;37.498;2024-03-23T02:51:07;98496.25;;;2.92;78.25
65546;BME280;52177;55.968;37.498;2024-03-23T02:51:38;98484.91;;;2.91;78.27
65546;BME280;52177;55.968;37.498;2024-03-23T02:52:08;98481.59;;;2.89;78.64
65546;BME280;52177;55.968;37.498;2024-03-23T02:52:38;98483.25;;;2.90;78.37
65546;BME280;52177;55.968;37.498;2024-03-23T02:53:09;98483.41;;;2.89;78.53
65546;BME280;52177;55.968;37.498;2024-03-23T02:53:39;98477.31;;;2.88;78.57
65546;BME280;52177;55.968;37.498;2024-03-23T02:54:10;98482.75;;;2.87;78.73
65546;BME280;52177;55.968;37.498;2024-03-23T02:54:40;98484.38;;;2.88;78.66
65546;BME280;52177;55.968;37.498;2024-03-23T02:55:14;98477.47;;;2.87;78.80
65546;BME280;52177;55.968;37.498;2024-03-23T02:55:45;98472.22;;;2.87;79.00
65546;BME280;52177;55.968;37.498;2024-03-23T02:56:16;98475.66;;;2.87;78.88
65546;BME280;52177;55.968;37.498;2024-03-23T02:56:46;98472.88;;;2.89;78.63
65546;BME280;52177;55.968;37.498;2024-03-23T02:57:17;98480.63;;;2.90;78.54
65546;BME280;52177;55.968;37.498;2024-03-23T02:57:47;98478.81;;;2.91;78.53
65546;BME280;52177;55.968;37.498;2024-03-23T02:58:18;98475.38;;;2.90;78.67
65546;BME280;52177;55.968;37.498;2024-03-23T02:58:48;98476.34;;;2.89;78.78
65546;BME280;52177;55.968;37.498;2024-03-23T02:59:19;98477.16;;;2.90;79.08
65546;BME280;52177;55.968;37.498;2024-03-23T02:59:49;98471.88;;;2.90;78.93
65546;BME280;52177;55.968;37.498;2024-03-23T03:00:20;98478.00;;;2.90;78.91
65546;BME280;52177;55.968;37.498;2024-03-23T03:00:50;98471.06;;;2.89;78.97
65546;BME280;52177;55.968;37.498;2024-03-23T03:01:21;98467.28;;;2.92;78.94
65546;BME280;52177;55.968;37.498;2024-03-23T03:01:51;98475.88;;;2.94;78.84
65546;BME280;52177;55.968;37.498;2024-03-23T03:02:22;98472.41;;;2.93;78.83
65546;BME280;52177;55.968;37.498;2024-03-23T03:02:52;98475.72;;;2.95;78.63
65546;BME280;52177;55.968;37.498;2024-03-23T03:03:22;98469.78;;;2.93;79.00
65546;BME280;52177;55.968;37.498;2024-03-23T03:03:53;98464.66;;;2.92;79.07
65546;BME280;52177;55.968;37.498;2024-03-23T03:04:23;98477.16;;;2.90;79.38
65546;BME280;52177;55.968;37.498;2024-03-23T03:04:54;98468.97;;;2.93;79.07
65546;BME280;52177;55.968;37.498;2024-03-23T03:05:24;98473.22;;;2.94;78.68
65546;BME280;52177;55.968;37.498;2024-03-23T03:05:56;98473.09;;;2.95;78.90
65546;BME280;52177;55.968;37.498;2024-03-23T03:06:27;98464.66;;;2.92;79.07
65546;BME280;52177;55.968;37.498;2024-03-23T03:06:57;98470.91;;;2.91;79.34
65546;BME280;52177;55.968;37.498;2024-03-23T03:07:28;98470.09;;;2.90;79.37
65546;BME280;52177;55.968;37.498;2024-03-23T03:07:58;98467.47;;;2.90;79.22
65546;BME280;52177;55.968;37.498;2024-03-23T03:08:29;98455.13;;;2.91;79.20
65546;BME280;52177;55.968;37.498;2024-03-23T03:08:59;98472.75;;;2.90;79.44
65546;BME280;52177;55.968;37.498;2024-03-23T03:09:30;98468.28;;;2.91;79.25
65546;BME280;52177;55.968;37.498;2024-03-23T03:10:00;98469.09;;;2.91;79.17
65546;BME280;52177;55.968;37.498;2024-03-23T03:10:30;98460.38;;;2.91;79.39
65546;BME280;52177;55.968;37.498;2024-03-23T03:11:04;98459.72;;;2.89;79.42
65546;BME280;52177;55.968;37.498;2024-03-23T03:11:35;98468.59;;;2.88;79.73
65546;BME280;52177;55.968;37.498;2024-03-23T03:12:06;98458.91;;;2.88;79.52
65546;BME280;52177;55.968;37.498;2024-03-23T03:12:37;98461.53;;;2.88;79.55
65546;BME280;52177;55.968;37.498;2024-03-23T03:13:07;98461.34;;;2.90;79.39
65546;BME280;52177;55.968;37.498;2024-03-23T03:13:38;98462.34;;;2.89;79.42
65546;BME280;52177;55.968;37.498;2024-03-23T03:14:08;98456.41;;;2.87;79.69
65546;BME280;52177;55.968;37.498;2024-03-23T03:14:39;98463.31;;;2.88;79.79
65546;BME280;52177;55.968;37.498;2024-03-23T03:15:09;98455.28;;;2.89;79.83
65546;BME280;52177;55.968;37.498;2024-03-23T03:15:41;98457.75;;;2.91;79.91
65546;BME280;52177;55.968;37.498;2024-03-23T03:16:11;98458.91;;;2.88;80.05
65546;BME280;52177;55.968;37.498;2024-03-23T03:16:43;98452.66;;;2.89;79.95
65546;BME280;52177;55.968;37.498;2024-03-23T03:17:13;98453.63;;;2.88;79.89
65546;BME280;52177;55.968;37.498;2024-03-23T03:17:45;98460.38;;;2.91;79.61
65546;BME280;52177;55.968;37.498;2024-03-23T03:18:15;98445.28;;;2.93;79.53
65546;BME280;52177;55.968;37.498;2024-03-23T03:18:45;98445.56;;;2.90;79.82
65546;BME280;52177;55.968;37.498;2024-03-23T03:19:16;98451.16;;;2.87;80.04
65546;BME280;52177;55.968;37.498;2024-03-23T03:19:47;98452.31;;;2.84;80.13
65546;BME280;52177;55.968;37.498;2024-03-23T03:20:18;98449.66;;;2.84;80.08
65546;BME280;52177;55.968;37.498;2024-03-23T03:20:48;98445.06;;;2.86;79.96
65546;BME280;52177;55.968;37.498;2024-03-23T03:21:19;98448.66;;;2.85;80.27
65546;BME280;52177;55.968;37.498;2024-03-23T03:21:49;98449.34;;;2.87;80.05
65546;BME280;52177;55.968;37.498;2024-03-23T03:22:20;98446.72;;;2.87;79.75
65546;BME280;52177;55.968;37.498;2024-03-23T03:22:50;98443.94;;;2.89;79.84
65546;BME280;52177;55.968;37.498;2024-03-23T03:23:23;98444.91;;;2.88;80.00
65546;BME280;52177;55.968;37.498;2024-03-23T03:23:54;98454.59;;;2.87;80.08
65546;BME280;52177;55.968;37.498;2024-03-23T03:24:26;98451.69;;;2.90;79.95
65546;BME280;52177;55.968;37.498;2024-03-23T03:24:56;98435.22;;;2.88;80.29
65546;BME280;52177;55.968;37.498;2024-03-23T03:25:27;98446.88;;;2.86;80.43
65546;BME280;52177;55.968;37.498;2024-03-23T03:25:57;98434.69;;;2.85;80.71
65546;BME280;52177;55.968;37.498;2024-03-23T03:26:28;98445.38;;;2.83;81.08
65546;BME280;52177;55.968;37.498;2024-03-23T03:26:58;98436.84;;;2.81;81.05
65546;BME280;52177;55.968;37.498;2024-03-23T03:27:28;98438.47;;;2.82;81.02
65546;BME280;52177;55.968;37.498;2024-03-23T03:27:59;98442.09;;;2.81;81.08
65546;BME280;52177;55.968;37.498;2024-03-23T03:28:31;98448.19;;;2.82;81.61
65546;BME280;52177;55.968;37.498;2024-03-23T03:29:02;98433.34;;;2.81;81.39
65546;BME280;52177;55.968;37.498;2024-03-23T03:29:33;98438.47;;;2.82;81.13
65546;BME280;52177;55.968;37.498;2024-03-23T03:30:06;98433.22;;;2.82;80.97
65546;BME280;52177;55.968;37.498;2024-03-23T03:30:39;98442.09;;;2.81;81.12
65546;BME280;52177;55.968;37.498;2024-03-23T03:31:09;98441.44;;;2.79;81.38
65546;BME280;52177;55.968;37.498;2024-03-23T03:31:39;98439.63;;;2.80;81.44
65546;BME280;52177;55.968;37.498;2024-03-23T03:32:10;98438.94;;;2.78;81.52
65546;BME280;52177;55.968;37.498;2024-03-23T03:32:40;98436.97;;;2.80;81.59
65546;BME280;52177;55.968;37.498;2024-03-23T03:33:11;98437.97;;;2.79;81.64
65546;BME280;52177;55.968;37.498;2024-03-23T03:33:42;98436.16;;;2.79;81.80
65546;BME280;52177;55.968;37.498;2024-03-23T03:34:12;98436.84;;;2.81;81.70
65546;BME280;52177;55.968;37.498;2024-03-23T03:34:43;98428.75;;;2.83;81.63
65546;BME280;52177;55.968;37.498;2024-03-23T03:35:13;98432.38;;;2.82;81.63
65546;BME280;52177;55.968;37.498;2024-03-23T03:35:44;98421.88;;;2.82;81.82
65546;BME280;52177;55.968;37.498;2024-03-23T03:36:16;98426.31;;;2.81;81.89
65546;BME280;52177;55.968;37.498;2024-03-23T03:36:46;98422.69;;;2.82;81.89